Airfield :
LOGIN :

Register | Disclaimer

   EN    FR    IT 

 










Legend :    VFR   Marginal VFR   IFR   Intensive IFR   Very Intensive IFR
Visi :
Ceiling :
>= 8 km
>= 3000ft
5 to 8 km
1000 to 3000 ft
1500m to 5 km
500 to 1000 ft
800 to 1500m
200 to 500 ft
< 800m
< 200 ft
Symbols :   Thunderstorms  Fog  Heavy snow  Heavy precipitations  Wind > 20 kt
SIGMETs :     Misc.  Thunderstorms  Icing  Turbulence  Mountain Waves  Volcanic Ashes







- Airport Elevation : 291 ft
- IATA code : ORY
- Download approach charts


LFPO - Paris-Orly

CURRENT METAR :
  • 202000Z 02006KT CAVOK 22/10 Q1022 NOSIG

EXPIRED METARs :
  • 201930Z 35003KT CAVOK 22/09 Q1022 NOSIG
  • 201900Z 36005KT 330V030 CAVOK 23/09 Q1021 NOSIG
  • 201830Z 34006KT CAVOK 24/10 Q1021 NOSIG
  • 201800Z 35008KT CAVOK 25/10 Q1021 NOSIG
  • 201730Z 01007KT 340V040 CAVOK 26/10 Q1021 NOSIG

TAF TAF LFPO
Valid from the 20 at 18:00 until the 22 at 00:00 UTC


201700Z 2018/2124 32005KT CAVOK
BECMG 2021/2023 02003KT
BECMG 2114/2116 10005KT
TEMPO 2122/2124 4000 SHRA BKN030CB
ATIS : +33 1 49 75 65 80
No reported NOTAMs for that airfield.



MET'MAP, your aeronautical weather chart ! - Copyright ORBIFLY December 2007 - Disclaimer

ORBIFLY MET'MAP TEAM :

Programming & Development : Alexandra Zaïnal
Concept & Development : Baudouin d'Aumeries
Co-Development & Prog : Marc-Olivier Méhu
Technical & hardware support : Manuel Goepfert

Contact : metmap@orbifly.com




SOURCES & CREDITS :

   NOAA